Terminal Aerodrome Forecast
Issued by NWS

Home | Current Version | Previous Version | Text Only | Print | Product List | Glossary On
Versions: 1 2 3 4 5 6 7 8 9 10 11 12 13 14 15 16 17 18 19 20 21 22 23 24 25 26 27 28 29
000
FTUS42 KCAE 150400 CCA
TAFCUB
TAF COR
KCUB 150436Z 1505/1524 03005KT P6SM OVC020
      TEMPO 1505/1507 -SHRA BKN009
     FM150800 VRB03KT P6SM OVC007
      TEMPO 1509/1513 5SM BR
     FM151400 VRB03KT P6SM OVC015
     FM152000 VRB04KT P6SM OVC035=

USA.gov is the U.S. government's official web portal to all federal, state and local government web resources and services.